sensor_id;sensor_type;location;lat;lon;timestamp;P1;durP1;ratioP1;P2;durP2;ratioP2
78716;SDS011;68045;50.042;14.432;2023-02-28T00:02:17;13.57;;;5.57;;
78716;SDS011;68045;50.042;14.432;2023-02-28T00:06:18;13.90;;;5.85;;
78716;SDS011;68045;50.042;14.432;2023-02-28T00:10:20;11.35;;;6.10;;
78716;SDS011;68045;50.042;14.432;2023-02-28T00:14:32;11.10;;;5.90;;
78716;SDS011;68045;50.042;14.432;2023-02-28T00:18:33;12.18;;;5.70;;
78716;SDS011;68045;50.042;14.432;2023-02-28T00:22:34;10.10;;;4.93;;
78716;SDS011;68045;50.042;14.432;2023-02-28T00:26:35;13.18;;;5.43;;
78716;SDS011;68045;50.042;14.432;2023-02-28T00:30:36;14.43;;;6.32;;
78716;SDS011;68045;50.042;14.432;2023-02-28T00:34:39;12.90;;;6.20;;
78716;SDS011;68045;50.042;14.432;2023-02-28T00:38:40;13.48;;;6.07;;
78716;SDS011;68045;50.042;14.432;2023-02-28T00:42:41;11.77;;;5.63;;
78716;SDS011;68045;50.042;14.432;2023-02-28T00:46:42;11.15;;;5.45;;
78716;SDS011;68045;50.042;14.432;2023-02-28T00:50:44;11.57;;;6.45;;
78716;SDS011;68045;50.042;14.432;2023-02-28T00:54:46;12.23;;;6.20;;
78716;SDS011;68045;50.042;14.432;2023-02-28T00:58:49;18.13;;;7.35;;
78716;SDS011;68045;50.042;14.432;2023-02-28T01:02:50;13.93;;;6.10;;
78716;SDS011;68045;50.042;14.432;2023-02-28T01:06:51;12.93;;;6.25;;
78716;SDS011;68045;50.042;14.432;2023-02-28T01:10:52;12.88;;;6.03;;
78716;SDS011;68045;50.042;14.432;2023-02-28T01:14:53;13.55;;;6.65;;
78716;SDS011;68045;50.042;14.432;2023-02-28T01:18:56;13.45;;;6.18;;
78716;SDS011;68045;50.042;14.432;2023-02-28T01:22:57;9.88;;;4.95;;
78716;SDS011;68045;50.042;14.432;2023-02-28T01:26:58;12.05;;;6.38;;
78716;SDS011;68045;50.042;14.432;2023-02-28T01:30:59;15.30;;;6.25;;
78716;SDS011;68045;50.042;14.432;2023-02-28T01:35:01;12.85;;;6.85;;
78716;SDS011;68045;50.042;14.432;2023-02-28T01:39:02;11.70;;;4.88;;
78716;SDS011;68045;50.042;14.432;2023-02-28T01:43:04;11.30;;;6.05;;
78716;SDS011;68045;50.042;14.432;2023-02-28T01:47:19;11.38;;;5.93;;
78716;SDS011;68045;50.042;14.432;2023-02-28T01:51:22;10.82;;;5.60;;
78716;SDS011;68045;50.042;14.432;2023-02-28T01:55:30;13.90;;;6.78;;
78716;SDS011;68045;50.042;14.432;2023-02-28T01:59:34;11.85;;;5.93;;
78716;SDS011;68045;50.042;14.432;2023-02-28T02:03:41;11.32;;;5.40;;
78716;SDS011;68045;50.042;14.432;2023-02-28T02:07:43;10.13;;;5.40;;
78716;SDS011;68045;50.042;14.432;2023-02-28T02:11:47;14.02;;;5.68;;
78716;SDS011;68045;50.042;14.432;2023-02-28T02:42:39;10.45;;;5.63;;
78716;SDS011;68045;50.042;14.432;2023-02-28T02:47:03;12.65;;;6.25;;
78716;SDS011;68045;50.042;14.432;2023-02-28T02:51:11;15.32;;;5.57;;
78716;SDS011;68045;50.042;14.432;2023-02-28T02:55:16;12.65;;;5.55;;
78716;SDS011;68045;50.042;14.432;2023-02-28T02:59:21;14.80;;;6.18;;
78716;SDS011;68045;50.042;14.432;2023-02-28T03:03:24;11.50;;;5.57;;
78716;SDS011;68045;50.042;14.432;2023-02-28T03:07:30;9.40;;;5.40;;
78716;SDS011;68045;50.042;14.432;2023-02-28T03:11:31;13.38;;;5.32;;
78716;SDS011;68045;50.042;14.432;2023-02-28T03:15:37;13.32;;;5.28;;
78716;SDS011;68045;50.042;14.432;2023-02-28T03:20:07;10.55;;;5.35;;
78716;SDS011;68045;50.042;14.432;2023-02-28T03:24:16;9.93;;;5.20;;
78716;SDS011;68045;50.042;14.432;2023-02-28T03:28:27;11.00;;;5.28;;
78716;SDS011;68045;50.042;14.432;2023-02-28T03:32:52;14.70;;;6.03;;
78716;SDS011;68045;50.042;14.432;2023-02-28T03:37:14;9.00;;;4.45;;
78716;SDS011;68045;50.042;14.432;2023-02-28T03:41:30;11.27;;;5.05;;
78716;SDS011;68045;50.042;14.432;2023-02-28T03:45:36;10.68;;;5.43;;
78716;SDS011;68045;50.042;14.432;2023-02-28T03:49:44;10.27;;;5.95;;
78716;SDS011;68045;50.042;14.432;2023-02-28T03:53:59;11.23;;;5.25;;
78716;SDS011;68045;50.042;14.432;2023-02-28T04:02:30;9.57;;;4.97;;
78716;SDS011;68045;50.042;14.432;2023-02-28T04:06:32;11.20;;;5.28;;
78716;SDS011;68045;50.042;14.432;2023-02-28T04:10:34;11.90;;;5.50;;
78716;SDS011;68045;50.042;14.432;2023-02-28T04:14:35;11.07;;;5.00;;
78716;SDS011;68045;50.042;14.432;2023-02-28T04:18:39;11.30;;;5.57;;
78716;SDS011;68045;50.042;14.432;2023-02-28T04:22:41;9.35;;;5.10;;
78716;SDS011;68045;50.042;14.432;2023-02-28T04:26:43;12.90;;;5.32;;
78716;SDS011;68045;50.042;14.432;2023-02-28T04:30:47;10.23;;;5.38;;
78716;SDS011;68045;50.042;14.432;2023-02-28T04:34:48;9.88;;;4.72;;
78716;SDS011;68045;50.042;14.432;2023-02-28T04:38:49;17.45;;;6.05;;
78716;SDS011;68045;50.042;14.432;2023-02-28T04:42:50;11.60;;;4.95;;
78716;SDS011;68045;50.042;14.432;2023-02-28T04:46:51;12.65;;;5.53;;
78716;SDS011;68045;50.042;14.432;2023-02-28T04:50:52;11.70;;;4.88;;
78716;SDS011;68045;50.042;14.432;2023-02-28T04:54:54;10.30;;;5.32;;
78716;SDS011;68045;50.042;14.432;2023-02-28T04:58:55;13.82;;;5.70;;
78716;SDS011;68045;50.042;14.432;2023-02-28T05:02:56;14.43;;;5.43;;
78716;SDS011;68045;50.042;14.432;2023-02-28T05:06:57;10.13;;;5.10;;
78716;SDS011;68045;50.042;14.432;2023-02-28T05:10:59;12.60;;;5.82;;
78716;SDS011;68045;50.042;14.432;2023-02-28T05:15:01;11.90;;;5.65;;
78716;SDS011;68045;50.042;14.432;2023-02-28T05:19:02;10.50;;;5.43;;
78716;SDS011;68045;50.042;14.432;2023-02-28T05:23:03;10.52;;;5.45;;
78716;SDS011;68045;50.042;14.432;2023-02-28T05:27:05;11.52;;;5.60;;
78716;SDS011;68045;50.042;14.432;2023-02-28T05:31:06;13.85;;;6.93;;
78716;SDS011;68045;50.042;14.432;2023-02-28T05:35:07;12.57;;;5.72;;
78716;SDS011;68045;50.042;14.432;2023-02-28T05:39:08;15.27;;;6.30;;
78716;SDS011;68045;50.042;14.432;2023-02-28T05:43:13;12.90;;;5.65;;
78716;SDS011;68045;50.042;14.432;2023-02-28T05:47:14;11.77;;;6.05;;
78716;SDS011;68045;50.042;14.432;2023-02-28T05:51:16;11.32;;;5.43;;
78716;SDS011;68045;50.042;14.432;2023-02-28T05:55:18;10.05;;;5.10;;
78716;SDS011;68045;50.042;14.432;2023-02-28T05:59:19;12.60;;;5.55;;
78716;SDS011;68045;50.042;14.432;2023-02-28T06:03:20;11.30;;;6.40;;
78716;SDS011;68045;50.042;14.432;2023-02-28T06:07:21;14.23;;;5.70;;
78716;SDS011;68045;50.042;14.432;2023-02-28T06:11:23;12.05;;;5.05;;
78716;SDS011;68045;50.042;14.432;2023-02-28T06:15:27;14.25;;;6.57;;
78716;SDS011;68045;50.042;14.432;2023-02-28T06:19:29;11.50;;;5.40;;
78716;SDS011;68045;50.042;14.432;2023-02-28T06:23:31;9.07;;;4.63;;
78716;SDS011;68045;50.042;14.432;2023-02-28T06:27:32;13.23;;;6.22;;
78716;SDS011;68045;50.042;14.432;2023-02-28T06:31:34;13.35;;;5.78;;
78716;SDS011;68045;50.042;14.432;2023-02-28T06:35:35;11.75;;;6.57;;
78716;SDS011;68045;50.042;14.432;2023-02-28T06:39:36;25.15;;;6.78;;
78716;SDS011;68045;50.042;14.432;2023-02-28T06:43:39;11.68;;;5.28;;
78716;SDS011;68045;50.042;14.432;2023-02-28T06:47:42;14.70;;;7.15;;
78716;SDS011;68045;50.042;14.432;2023-02-28T06:51:43;12.27;;;6.95;;
78716;SDS011;68045;50.042;14.432;2023-02-28T06:55:46;12.50;;;5.50;;
78716;SDS011;68045;50.042;14.432;2023-02-28T06:59:47;9.50;;;5.05;;
78716;SDS011;68045;50.042;14.432;2023-02-28T07:03:49;14.90;;;6.32;;
78716;SDS011;68045;50.042;14.432;2023-02-28T07:07:52;14.23;;;6.72;;
78716;SDS011;68045;50.042;14.432;2023-02-28T07:11:53;16.77;;;7.22;;
78716;SDS011;68045;50.042;14.432;2023-02-28T07:16:04;9.80;;;5.22;;
78716;SDS011;68045;50.042;14.432;2023-02-28T07:20:09;15.10;;;7.30;;
78716;SDS011;68045;50.042;14.432;2023-02-28T07:24:11;15.90;;;7.43;;
78716;SDS011;68045;50.042;14.432;2023-02-28T07:28:12;17.08;;;6.82;;
78716;SDS011;68045;50.042;14.432;2023-02-28T07:32:14;16.00;;;7.35;;
78716;SDS011;68045;50.042;14.432;2023-02-28T07:36:16;16.13;;;7.63;;
78716;SDS011;68045;50.042;14.432;2023-02-28T07:40:19;13.73;;;6.97;;
78716;SDS011;68045;50.042;14.432;2023-02-28T07:44:20;12.82;;;6.20;;
78716;SDS011;68045;50.042;14.432;2023-02-28T07:48:21;12.60;;;6.15;;
78716;SDS011;68045;50.042;14.432;2023-02-28T07:52:22;11.60;;;5.63;;
78716;SDS011;68045;50.042;14.432;2023-02-28T07:56:24;13.85;;;7.07;;
78716;SDS011;68045;50.042;14.432;2023-02-28T08:00:25;18.13;;;7.88;;
78716;SDS011;68045;50.042;14.432;2023-02-28T08:04:26;18.10;;;7.28;;
78716;SDS011;68045;50.042;14.432;2023-02-28T08:08:27;14.55;;;7.45;;
78716;SDS011;68045;50.042;14.432;2023-02-28T08:12:32;11.80;;;6.78;;
78716;SDS011;68045;50.042;14.432;2023-02-28T08:16:34;13.93;;;7.15;;
78716;SDS011;68045;50.042;14.432;2023-02-28T08:20:35;12.02;;;6.57;;
78716;SDS011;68045;50.042;14.432;2023-02-28T08:24:36;13.95;;;7.10;;
78716;SDS011;68045;50.042;14.432;2023-02-28T08:28:37;14.15;;;7.68;;
78716;SDS011;68045;50.042;14.432;2023-02-28T08:32:39;11.93;;;6.40;;
78716;SDS011;68045;50.042;14.432;2023-02-28T08:36:41;14.68;;;7.78;;
78716;SDS011;68045;50.042;14.432;2023-02-28T08:40:43;13.68;;;7.68;;
78716;SDS011;68045;50.042;14.432;2023-02-28T08:44:44;16.92;;;8.30;;
78716;SDS011;68045;50.042;14.432;2023-02-28T08:48:45;12.82;;;7.90;;
78716;SDS011;68045;50.042;14.432;2023-02-28T08:52:46;10.95;;;7.95;;
78716;SDS011;68045;50.042;14.432;2023-02-28T08:56:47;15.32;;;8.80;;
78716;SDS011;68045;50.042;14.432;2023-02-28T09:00:49;15.32;;;8.90;;
78716;SDS011;68045;50.042;14.432;2023-02-28T09:04:51;15.00;;;8.77;;
78716;SDS011;68045;50.042;14.432;2023-02-28T09:08:52;14.50;;;8.20;;
78716;SDS011;68045;50.042;14.432;2023-02-28T09:12:55;12.40;;;8.32;;
78716;SDS011;68045;50.042;14.432;2023-02-28T09:16:58;11.27;;;7.25;;
78716;SDS011;68045;50.042;14.432;2023-02-28T09:20:59;15.68;;;8.45;;
78716;SDS011;68045;50.042;14.432;2023-02-28T09:25:00;14.30;;;8.57;;
78716;SDS011;68045;50.042;14.432;2023-02-28T09:29:01;13.20;;;8.18;;
78716;SDS011;68045;50.042;14.432;2023-02-28T09:33:03;13.07;;;8.60;;
78716;SDS011;68045;50.042;14.432;2023-02-28T09:37:04;11.60;;;8.32;;
78716;SDS011;68045;50.042;14.432;2023-02-28T09:41:10;12.82;;;8.20;;
78716;SDS011;68045;50.042;14.432;2023-02-28T09:45:25;12.88;;;8.43;;
78716;SDS011;68045;50.042;14.432;2023-02-28T09:49:38;13.00;;;8.57;;
78716;SDS011;68045;50.042;14.432;2023-02-28T09:53:42;15.45;;;9.00;;
78716;SDS011;68045;50.042;14.432;2023-02-28T09:57:43;13.75;;;9.30;;
78716;SDS011;68045;50.042;14.432;2023-02-28T10:06:17;12.18;;;8.63;;
78716;SDS011;68045;50.042;14.432;2023-02-28T10:14:29;12.98;;;9.00;;
78716;SDS011;68045;50.042;14.432;2023-02-28T10:18:38;13.90;;;9.20;;
78716;SDS011;68045;50.042;14.432;2023-02-28T10:31:19;11.93;;;9.00;;
78716;SDS011;68045;50.042;14.432;2023-02-28T10:35:22;12.73;;;9.30;;
78716;SDS011;68045;50.042;14.432;2023-02-28T10:39:35;12.32;;;9.30;;
78716;SDS011;68045;50.042;14.432;2023-02-28T10:43:39;18.70;;;10.60;;
78716;SDS011;68045;50.042;14.432;2023-02-28T10:47:48;12.52;;;8.93;;
78716;SDS011;68045;50.042;14.432;2023-02-28T10:51:59;12.75;;;9.32;;
78716;SDS011;68045;50.042;14.432;2023-02-28T11:04:31;11.48;;;9.00;;
78716;SDS011;68045;50.042;14.432;2023-02-28T11:08:43;12.30;;;9.63;;
78716;SDS011;68045;50.042;14.432;2023-02-28T11:12:50;15.43;;;9.30;;
78716;SDS011;68045;50.042;14.432;2023-02-28T11:21:31;14.38;;;9.80;;
78716;SDS011;68045;50.042;14.432;2023-02-28T11:25:40;16.75;;;10.30;;
78716;SDS011;68045;50.042;14.432;2023-02-28T11:29:54;13.68;;;9.60;;
78716;SDS011;68045;50.042;14.432;2023-02-28T11:33:55;12.50;;;9.07;;
78716;SDS011;68045;50.042;14.432;2023-02-28T11:37:57;14.75;;;9.68;;
78716;SDS011;68045;50.042;14.432;2023-02-28T12:07:24;15.30;;;9.98;;
78716;SDS011;68045;50.042;14.432;2023-02-28T12:15:42;18.02;;;10.38;;
78716;SDS011;68045;50.042;14.432;2023-02-28T12:28:43;14.55;;;10.07;;
78716;SDS011;68045;50.042;14.432;2023-02-28T12:32:51;11.88;;;10.00;;
78716;SDS011;68045;50.042;14.432;2023-02-28T12:36:58;11.00;;;9.32;;
78716;SDS011;68045;50.042;14.432;2023-02-28T12:41:05;13.18;;;9.50;;
78716;SDS011;68045;50.042;14.432;2023-02-28T12:45:12;10.98;;;9.20;;
78716;SDS011;68045;50.042;14.432;2023-02-28T12:49:20;11.88;;;9.45;;
78716;SDS011;68045;50.042;14.432;2023-02-28T12:57:36;13.40;;;9.30;;
78716;SDS011;68045;50.042;14.432;2023-02-28T13:10:44;9.77;;;8.48;;
78716;SDS011;68045;50.042;14.432;2023-02-28T13:14:47;12.00;;;10.15;;
78716;SDS011;68045;50.042;14.432;2023-02-28T13:18:49;11.32;;;9.43;;
78716;SDS011;68045;50.042;14.432;2023-02-28T13:22:51;12.23;;;9.73;;
78716;SDS011;68045;50.042;14.432;2023-02-28T13:31:04;11.80;;;8.90;;
78716;SDS011;68045;50.042;14.432;2023-02-28T13:39:45;15.88;;;10.48;;
78716;SDS011;68045;50.042;14.432;2023-02-28T13:48:16;14.25;;;10.25;;
78716;SDS011;68045;50.042;14.432;2023-02-28T13:52:20;12.70;;;9.88;;
78716;SDS011;68045;50.042;14.432;2023-02-28T13:56:30;14.63;;;10.35;;
78716;SDS011;68045;50.042;14.432;2023-02-28T14:05:17;14.85;;;10.15;;
78716;SDS011;68045;50.042;14.432;2023-02-28T14:17:47;14.77;;;10.25;;
78716;SDS011;68045;50.042;14.432;2023-02-28T14:31:07;17.73;;;10.65;;
78716;SDS011;68045;50.042;14.432;2023-02-28T14:39:29;15.18;;;10.45;;
78716;SDS011;68045;50.042;14.432;2023-02-28T14:43:31;15.23;;;10.23;;
78716;SDS011;68045;50.042;14.432;2023-02-28T14:47:33;16.05;;;9.85;;
78716;SDS011;68045;50.042;14.432;2023-02-28T14:51:36;16.83;;;10.73;;
78716;SDS011;68045;50.042;14.432;2023-02-28T14:55:43;16.92;;;10.35;;
78716;SDS011;68045;50.042;14.432;2023-02-28T14:59:45;12.88;;;9.65;;
78716;SDS011;68045;50.042;14.432;2023-02-28T15:03:46;13.32;;;9.60;;
78716;SDS011;68045;50.042;14.432;2023-02-28T15:07:48;13.68;;;9.88;;
78716;SDS011;68045;50.042;14.432;2023-02-28T15:11:49;15.48;;;10.10;;
78716;SDS011;68045;50.042;14.432;2023-02-28T15:16:01;13.07;;;9.27;;
78716;SDS011;68045;50.042;14.432;2023-02-28T15:20:05;16.15;;;9.40;;
78716;SDS011;68045;50.042;14.432;2023-02-28T15:24:21;17.95;;;10.18;;
78716;SDS011;68045;50.042;14.432;2023-02-28T15:28:51;16.23;;;10.63;;
78716;SDS011;68045;50.042;14.432;2023-02-28T15:33:05;14.68;;;10.25;;
78716;SDS011;68045;50.042;14.432;2023-02-28T15:41:46;16.30;;;9.45;;
78716;SDS011;68045;50.042;14.432;2023-02-28T15:45:48;16.40;;;10.05;;
78716;SDS011;68045;50.042;14.432;2023-02-28T15:50:02;16.35;;;10.43;;
78716;SDS011;68045;50.042;14.432;2023-02-28T15:54:14;14.38;;;10.77;;
78716;SDS011;68045;50.042;14.432;2023-02-28T15:58:20;18.08;;;10.27;;
78716;SDS011;68045;50.042;14.432;2023-02-28T16:02:30;18.60;;;10.55;;
78716;SDS011;68045;50.042;14.432;2023-02-28T16:10:44;19.67;;;10.55;;
78716;SDS011;68045;50.042;14.432;2023-02-28T16:14:51;17.52;;;9.60;;
78716;SDS011;68045;50.042;14.432;2023-02-28T16:18:54;17.40;;;10.38;;
78716;SDS011;68045;50.042;14.432;2023-02-28T16:22:55;17.30;;;9.57;;
78716;SDS011;68045;50.042;14.432;2023-02-28T16:26:57;15.88;;;9.40;;
78716;SDS011;68045;50.042;14.432;2023-02-28T16:31:02;16.50;;;8.82;;
78716;SDS011;68045;50.042;14.432;2023-02-28T16:35:09;18.60;;;9.70;;
78716;SDS011;68045;50.042;14.432;2023-02-28T16:39:11;16.27;;;9.15;;
78716;SDS011;68045;50.042;14.432;2023-02-28T16:43:16;17.88;;;8.77;;
78716;SDS011;68045;50.042;14.432;2023-02-28T16:47:19;15.43;;;8.27;;
78716;SDS011;68045;50.042;14.432;2023-02-28T16:51:21;14.70;;;8.27;;
78716;SDS011;68045;50.042;14.432;2023-02-28T16:55:23;14.93;;;8.30;;
78716;SDS011;68045;50.042;14.432;2023-02-28T16:59:24;17.33;;;8.18;;
78716;SDS011;68045;50.042;14.432;2023-02-28T17:03:27;16.63;;;8.15;;
78716;SDS011;68045;50.042;14.432;2023-02-28T17:07:29;20.38;;;9.02;;
78716;SDS011;68045;50.042;14.432;2023-02-28T17:11:31;18.75;;;8.98;;
78716;SDS011;68045;50.042;14.432;2023-02-28T17:15:33;21.38;;;9.63;;
78716;SDS011;68045;50.042;14.432;2023-02-28T17:19:34;18.13;;;8.68;;
78716;SDS011;68045;50.042;14.432;2023-02-28T17:23:36;18.33;;;8.32;;
78716;SDS011;68045;50.042;14.432;2023-02-28T17:27:37;25.02;;;11.68;;
78716;SDS011;68045;50.042;14.432;2023-02-28T17:31:38;15.00;;;8.85;;
78716;SDS011;68045;50.042;14.432;2023-02-28T17:35:39;20.30;;;9.95;;
78716;SDS011;68045;50.042;14.432;2023-02-28T17:39:40;19.98;;;10.00;;
78716;SDS011;68045;50.042;14.432;2023-02-28T17:43:41;20.25;;;9.80;;
78716;SDS011;68045;50.042;14.432;2023-02-28T17:47:43;17.08;;;9.65;;
78716;SDS011;68045;50.042;14.432;2023-02-28T17:51:47;19.60;;;9.45;;
78716;SDS011;68045;50.042;14.432;2023-02-28T17:55:49;17.10;;;9.23;;
78716;SDS011;68045;50.042;14.432;2023-02-28T17:59:50;17.02;;;9.07;;
78716;SDS011;68045;50.042;14.432;2023-02-28T18:03:51;25.02;;;10.13;;
78716;SDS011;68045;50.042;14.432;2023-02-28T18:07:53;23.92;;;10.00;;
78716;SDS011;68045;50.042;14.432;2023-02-28T18:11:55;19.58;;;9.10;;
78716;SDS011;68045;50.042;14.432;2023-02-28T18:15:56;19.42;;;9.50;;
78716;SDS011;68045;50.042;14.432;2023-02-28T18:19:57;19.13;;;9.50;;
78716;SDS011;68045;50.042;14.432;2023-02-28T18:23:59;19.00;;;9.25;;
78716;SDS011;68045;50.042;14.432;2023-02-28T18:28:01;19.27;;;9.30;;
78716;SDS011;68045;50.042;14.432;2023-02-28T18:32:02;18.35;;;8.68;;
78716;SDS011;68045;50.042;14.432;2023-02-28T18:36:04;22.50;;;8.90;;
78716;SDS011;68045;50.042;14.432;2023-02-28T18:40:06;21.13;;;10.73;;
78716;SDS011;68045;50.042;14.432;2023-02-28T18:44:07;19.70;;;10.25;;
78716;SDS011;68045;50.042;14.432;2023-02-28T18:48:09;23.42;;;10.07;;
78716;SDS011;68045;50.042;14.432;2023-02-28T18:52:10;22.27;;;11.02;;
78716;SDS011;68045;50.042;14.432;2023-02-28T18:56:12;22.00;;;10.95;;
78716;SDS011;68045;50.042;14.432;2023-02-28T19:00:15;24.20;;;10.15;;
78716;SDS011;68045;50.042;14.432;2023-02-28T19:04:22;24.90;;;10.60;;
78716;SDS011;68045;50.042;14.432;2023-02-28T19:08:23;23.33;;;11.27;;
78716;SDS011;68045;50.042;14.432;2023-02-28T19:12:25;19.83;;;10.55;;
78716;SDS011;68045;50.042;14.432;2023-02-28T19:16:26;21.40;;;10.38;;
78716;SDS011;68045;50.042;14.432;2023-02-28T19:20:27;21.17;;;10.70;;
78716;SDS011;68045;50.042;14.432;2023-02-28T19:24:28;22.80;;;10.88;;
78716;SDS011;68045;50.042;14.432;2023-02-28T19:28:29;24.80;;;11.88;;
78716;SDS011;68045;50.042;14.432;2023-02-28T19:32:30;25.73;;;12.00;;
78716;SDS011;68045;50.042;14.432;2023-02-28T19:36:32;24.02;;;12.55;;
78716;SDS011;68045;50.042;14.432;2023-02-28T19:40:34;31.27;;;13.18;;
78716;SDS011;68045;50.042;14.432;2023-02-28T19:44:35;25.83;;;12.52;;
78716;SDS011;68045;50.042;14.432;2023-02-28T19:48:36;20.02;;;10.95;;
78716;SDS011;68045;50.042;14.432;2023-02-28T19:52:38;27.77;;;13.00;;
78716;SDS011;68045;50.042;14.432;2023-02-28T19:56:39;27.00;;;12.98;;
78716;SDS011;68045;50.042;14.432;2023-02-28T20:00:40;33.15;;;14.00;;
78716;SDS011;68045;50.042;14.432;2023-02-28T20:04:41;32.03;;;13.38;;
78716;SDS011;68045;50.042;14.432;2023-02-28T20:08:45;30.63;;;13.50;;
78716;SDS011;68045;50.042;14.432;2023-02-28T20:12:46;31.95;;;15.07;;
78716;SDS011;68045;50.042;14.432;2023-02-28T20:16:47;28.65;;;14.00;;
78716;SDS011;68045;50.042;14.432;2023-02-28T20:20:48;30.83;;;14.57;;
78716;SDS011;68045;50.042;14.432;2023-02-28T20:24:50;30.80;;;13.85;;
78716;SDS011;68045;50.042;14.432;2023-02-28T20:28:51;34.15;;;15.13;;
78716;SDS011;68045;50.042;14.432;2023-02-28T20:32:52;36.28;;;15.10;;
78716;SDS011;68045;50.042;14.432;2023-02-28T20:36:53;32.42;;;15.15;;
78716;SDS011;68045;50.042;14.432;2023-02-28T20:40:59;38.45;;;14.90;;
78716;SDS011;68045;50.042;14.432;2023-02-28T20:45:01;37.17;;;15.48;;
78716;SDS011;68045;50.042;14.432;2023-02-28T20:49:03;29.90;;;15.57;;
78716;SDS011;68045;50.042;14.432;2023-02-28T20:53:04;34.90;;;15.98;;
78716;SDS011;68045;50.042;14.432;2023-02-28T20:57:06;29.25;;;15.27;;
78716;SDS011;68045;50.042;14.432;2023-02-28T21:09:17;30.48;;;14.07;;
78716;SDS011;68045;50.042;14.432;2023-02-28T21:13:18;39.78;;;15.32;;
78716;SDS011;68045;50.042;14.432;2023-02-28T21:17:20;37.00;;;15.30;;
78716;SDS011;68045;50.042;14.432;2023-02-28T21:21:22;32.05;;;14.73;;
78716;SDS011;68045;50.042;14.432;2023-02-28T21:29:25;35.58;;;13.50;;
78716;SDS011;68045;50.042;14.432;2023-02-28T21:33:27;34.20;;;15.68;;
78716;SDS011;68045;50.042;14.432;2023-02-28T21:37:29;37.00;;;16.23;;
78716;SDS011;68045;50.042;14.432;2023-02-28T21:41:30;36.25;;;14.00;;
78716;SDS011;68045;50.042;14.432;2023-02-28T21:45:32;33.15;;;14.48;;
78716;SDS011;68045;50.042;14.432;2023-02-28T21:49:34;31.73;;;14.50;;
78716;SDS011;68045;50.042;14.432;2023-02-28T21:53:36;30.08;;;14.50;;
78716;SDS011;68045;50.042;14.432;2023-02-28T21:57:38;33.22;;;14.27;;
78716;SDS011;68045;50.042;14.432;2023-02-28T22:01:40;33.15;;;15.02;;
78716;SDS011;68045;50.042;14.432;2023-02-28T22:05:45;30.55;;;14.32;;
78716;SDS011;68045;50.042;14.432;2023-02-28T22:09:46;34.85;;;14.40;;
78716;SDS011;68045;50.042;14.432;2023-02-28T22:13:47;32.60;;;13.68;;
78716;SDS011;68045;50.042;14.432;2023-02-28T22:17:50;30.52;;;13.75;;
78716;SDS011;68045;50.042;14.432;2023-02-28T22:21:51;32.45;;;15.10;;
78716;SDS011;68045;50.042;14.432;2023-02-28T22:25:53;39.40;;;17.20;;
78716;SDS011;68045;50.042;14.432;2023-02-28T22:29:54;37.78;;;16.83;;
78716;SDS011;68045;50.042;14.432;2023-02-28T22:33:57;29.80;;;13.70;;
78716;SDS011;68045;50.042;14.432;2023-02-28T22:38:00;34.45;;;15.05;;
78716;SDS011;68045;50.042;14.432;2023-02-28T22:42:01;29.63;;;15.60;;
78716;SDS011;68045;50.042;14.432;2023-02-28T22:46:03;32.60;;;15.27;;
78716;SDS011;68045;50.042;14.432;2023-02-28T22:50:07;32.85;;;15.93;;
78716;SDS011;68045;50.042;14.432;2023-02-28T22:54:09;37.25;;;15.65;;
78716;SDS011;68045;50.042;14.432;2023-02-28T22:58:11;36.60;;;16.27;;
78716;SDS011;68045;50.042;14.432;2023-02-28T23:02:12;32.70;;;15.63;;
78716;SDS011;68045;50.042;14.432;2023-02-28T23:10:17;42.58;;;16.63;;
78716;SDS011;68045;50.042;14.432;2023-02-28T23:14:19;35.17;;;16.17;;
78716;SDS011;68045;50.042;14.432;2023-02-28T23:18:20;36.97;;;16.85;;
78716;SDS011;68045;50.042;14.432;2023-02-28T23:22:21;43.03;;;18.08;;
78716;SDS011;68045;50.042;14.432;2023-02-28T23:26:22;36.58;;;17.40;;
78716;SDS011;68045;50.042;14.432;2023-02-28T23:30:23;40.55;;;17.63;;
78716;SDS011;68045;50.042;14.432;2023-02-28T23:34:25;42.85;;;18.58;;
78716;SDS011;68045;50.042;14.432;2023-02-28T23:38:30;44.55;;;19.00;;
78716;SDS011;68045;50.042;14.432;2023-02-28T23:42:31;42.63;;;17.67;;
78716;SDS011;68045;50.042;14.432;2023-02-28T23:46:32;43.63;;;16.77;;
78716;SDS011;68045;50.042;14.432;2023-02-28T23:50:33;38.13;;;18.00;;
78716;SDS011;68045;50.042;14.432;2023-02-28T23:54:37;49.40;;;20.92;;
78716;SDS011;68045;50.042;14.432;2023-02-28T23:58:38;37.05;;;17.05;;
